Time;durP1;ratioP1;P1;durP2;ratioP2;P2;SDS_P1;SDS_P2;PMS_P1;PMS_P2;Temp;Humidity;BMP_temperature;BMP_pressure;BME280_temperature;BME280_humidity;BME280_pressure;Samples;Min_cycle;Max_cycle;Signal;HPM_P1;HPM_P2
2023/06/26 00:00:07;;;;;;;10.73;8.38;;;;;;;21.96;82.03;100256.25;4960792;28;20047;-72
2023/06/26 00:02:34;;;;;;;9.60;8.02;;;;;;;21.96;82.11;100252.69;4948287;28;20047;-72
2023/06/26 00:05:02;;;;;;;10.48;7.85;;;;;;;21.98;80.59;100245.31;4949845;28;20047;-73
2023/06/26 00:07:30;;;;;;;9.50;7.75;;;;;;;22.09;79.63;100245.16;4943693;28;20146;-71
2023/06/26 00:09:58;;;;;;;8.85;7.63;;;;;;;22.11;78.70;100247.69;4948806;28;20053;-71
2023/06/26 00:12:26;;;;;;;8.82;7.30;;;;;;;22.07;78.21;100241.75;4950921;28;20069;-72
2023/06/26 00:14:53;;;;;;;9.10;7.75;;;;;;;22.07;78.10;100239.06;4950436;28;20048;-70
2023/06/26 00:17:20;;;;;;;8.55;7.55;;;;;;;21.95;78.59;100230.28;4947470;28;20425;-71
2023/06/26 00:19:50;;;;;;;9.80;8.25;;;;;;;21.94;79.11;100243.91;4947144;28;20055;-71
2023/06/26 00:22:18;;;;;;;11.23;7.80;;;;;;;21.85;79.78;100240.28;4949888;28;20065;-72
2023/06/26 00:24:44;;;;;;;8.52;7.72;;;;;;;21.66;80.74;100221.47;4953759;28;20051;-72
2023/06/26 00:27:11;;;;;;;9.32;7.75;;;;;;;21.71;81.24;100240.75;4949918;28;20047;-72
2023/06/26 00:29:38;;;;;;;8.85;7.65;;;;;;;21.67;81.49;100250.13;4916954;28;20107;-73
2023/06/26 00:32:06;;;;;;;10.05;7.80;;;;;;;21.62;81.66;100249.69;4934837;28;20054;-72
2023/06/26 00:34:35;;;;;;;10.43;7.63;;;;;;;21.58;82.04;100245.59;4949152;28;20043;-73
2023/06/26 00:37:02;;;;;;;9.75;7.45;;;;;;;21.54;82.89;100238.81;4947039;28;20047;-72
2023/06/26 00:39:28;;;;;;;10.00;7.93;;;;;;;21.49;84.56;100238.38;4926340;29;20044;-71
2023/06/26 00:41:56;;;;;;;9.18;8.00;;;;;;;21.41;84.96;100239.09;4917203;29;20055;-72
2023/06/26 00:44:23;;;;;;;11.93;8.02;;;;;;;21.35;86.07;100235.16;4938485;29;20151;-72
2023/06/26 00:46:50;;;;;;;9.15;8.05;;;;;;;21.27;86.52;100232.31;4927174;29;20059;-71
2023/06/26 00:49:19;;;;;;;8.07;7.28;;;;;;;21.28;86.30;100236.72;4926596;29;20055;-72
2023/06/26 00:51:46;;;;;;;8.48;7.53;;;;;;;21.21;86.62;100232.91;4919926;29;20039;-73
2023/06/26 00:54:19;;;;;;;10.77;7.38;;;;;;;21.20;86.73;100241.13;4936123;29;20047;-72
2023/06/26 00:56:47;;;;;;;8.00;7.20;;;;;;;21.20;87.31;100243.84;4932829;29;20071;-72
2023/06/26 00:59:14;;;;;;;8.88;7.40;;;;;;;21.12;86.17;100214.03;4905909;29;20054;-72
2023/06/26 01:01:43;;;;;;;8.10;7.25;;;;;;;21.23;85.19;100228.25;4928522;29;20455;-73
2023/06/26 01:04:17;;;;;;;9.85;7.78;;;;;;;21.14;85.52;100215.59;4931440;29;20134;-72
2023/06/26 01:06:48;;;;;;;8.30;7.40;;;;;;;21.20;86.42;100228.53;4933008;29;20040;-73
2023/06/26 01:09:19;;;;;;;8.60;7.70;;;;;;;21.27;85.67;100224.25;4923320;28;20052;-72
2023/06/26 01:11:46;;;;;;;9.60;7.97;;;;;;;21.25;85.54;100220.84;4929337;29;20051;-71
2023/06/26 01:14:14;;;;;;;8.30;7.50;;;;;;;21.27;85.54;100224.25;4932252;29;20056;-71
2023/06/26 01:16:47;;;;;;;10.20;7.93;;;;;;;21.22;85.67;100220.31;4912534;29;20047;-71
2023/06/26 01:19:24;;;;;;;9.75;8.07;;;;;;;21.19;85.98;100229.53;4924183;29;20054;-71
2023/06/26 01:22:16;;;;;;;9.50;7.63;;;;;;;21.13;86.77;100229.19;4913648;29;20086;-72
2023/06/26 01:25:10;;;;;;;10.77;8.13;;;;;;;21.08;87.22;100220.72;4912703;29;20054;-72
2023/06/26 01:27:38;;;;;;;9.60;8.13;;;;;;;21.07;87.65;100217.19;4916334;29;20074;-72
2023/06/26 01:30:08;;;;;;;9.43;7.95;;;;;;;21.06;87.67;100218.16;4906627;29;20278;-72
2023/06/26 01:32:36;;;;;;;8.50;7.70;;;;;;;20.94;88.80;100209.38;4912657;29;20507;-72
2023/06/26 01:35:05;;;;;;;9.35;8.23;;;;;;;20.89;89.81;100214.34;4930525;29;20387;-72
2023/06/26 01:37:32;;;;;;;9.40;7.67;;;;;;;20.81;90.39;100206.13;4916698;28;20078;-72
2023/06/26 01:39:59;;;;;;;9.05;8.13;;;;;;;20.77;91.14;100210.13;4930492;28;20475;-72
2023/06/26 01:42:27;;;;;;;10.07;7.78;;;;;;;20.77;92.37;100209.25;4932497;28;20053;-73
2023/06/26 01:44:55;;;;;;;12.10;8.20;;;;;;;20.66;92.26;100197.63;4916714;28;20051;-71
2023/06/26 01:47:27;;;;;;;10.52;8.48;;;;;;;20.70;93.39;100208.13;4949046;28;20559;-71
2023/06/26 01:50:14;;;;;;;9.02;7.72;;;;;;;20.62;94.29;100212.34;4933137;28;20089;-72
2023/06/26 01:52:46;;;;;;;9.88;8.23;;;;;;;20.54;95.17;100209.53;4934488;29;20699;-72
2023/06/26 01:55:21;;;;;;;9.50;8.40;;;;;;;20.56;96.97;100204.84;4932992;28;20047;-71
2023/06/26 01:57:49;;;;;;;9.82;8.82;;;;;;;20.47;97.17;100192.22;4932821;28;20522;-71
2023/06/26 02:00:19;;;;;;;10.70;8.82;;;;;;;20.39;98.15;100192.09;4942714;28;20047;-71
2023/06/26 02:02:46;;;;;;;9.30;8.18;;;;;;;20.44;98.38;100184.47;4950520;28;20039;-71
2023/06/26 02:05:14;;;;;;;10.02;8.77;;;;;;;20.46;97.36;100185.16;4954566;28;20048;-72
2023/06/26 02:07:42;;;;;;;10.07;8.98;;;;;;;20.43;97.96;100190.84;4948782;28;20429;-71
2023/06/26 02:10:09;;;;;;;10.85;9.02;;;;;;;20.39;98.97;100200.16;4944569;28;20473;-72
2023/06/26 02:12:37;;;;;;;11.52;8.63;;;;;;;20.27;99.49;100201.25;4932609;28;20043;-72
2023/06/26 02:15:04;;;;;;;9.93;8.40;;;;;;;20.22;100.00;100209.72;4948886;28;20043;-72
2023/06/26 02:17:31;;;;;;;11.77;8.95;;;;;;;20.15;100.00;100196.94;4948914;28;20066;-72
2023/06/26 02:19:58;;;;;;;10.82;8.57;;;;;;;20.17;100.00;100200.34;4945813;28;20043;-72
2023/06/26 02:22:25;;;;;;;9.57;8.55;;;;;;;20.15;100.00;100202.31;4950694;28;20051;-72
2023/06/26 02:24:52;;;;;;;10.50;9.40;;;;;;;20.01;100.00;100189.28;4933692;28;20075;-72
2023/06/26 02:27:21;;;;;;;9.73;8.20;;;;;;;20.12;100.00;100206.16;4953315;28;20066;-72
2023/06/26 02:29:49;;;;;;;9.73;8.30;;;;;;;20.14;100.00;100198.81;4933250;28;20047;-72
2023/06/26 02:32:16;;;;;;;10.18;8.75;;;;;;;20.19;100.00;100195.69;4947000;28;20044;-73
2023/06/26 02:34:42;;;;;;;10.27;8.52;;;;;;;20.13;100.00;100198.97;4953453;28;20044;-72
2023/06/26 02:37:10;;;;;;;10.85;8.55;;;;;;;19.99;100.00;100197.47;4950141;28;20075;-72
2023/06/26 02:39:37;;;;;;;11.00;8.90;;;;;;;19.96;100.00;100208.53;4944859;28;20554;-72
2023/06/26 02:42:05;;;;;;;9.93;8.70;;;;;;;19.83;100.00;100203.34;4929765;28;20631;-72
2023/06/26 02:44:32;;;;;;;10.95;9.10;;;;;;;19.78;100.00;100210.16;4947441;28;20051;-72
2023/06/26 02:46:58;;;;;;;10.68;9.10;;;;;;;19.75;100.00;100213.09;4948565;28;20069;-71
2023/06/26 02:49:27;;;;;;;10.15;8.23;;;;;;;19.78;100.00;100205.63;4929188;28;20565;-71
2023/06/26 02:51:55;;;;;;;;;;;;;;;19.89;100.00;100212.72;4957048;28;20047;-72
2023/06/26 02:54:22;;;;;;;12.50;9.10;;;;;;;19.92;100.00;100215.16;4935367;29;20423;-72
2023/06/26 02:56:49;;;;;;;11.85;8.20;;;;;;;19.83;100.00;100195.31;4952881;28;20502;-72
2023/06/26 02:59:16;;;;;;;12.18;8.95;;;;;;;19.73;100.00;100197.09;4916173;28;21926;-72
2023/06/26 03:01:43;;;;;;;14.95;9.70;;;;;;;19.66;100.00;100204.03;4948386;28;20051;-71
2023/06/26 03:04:10;;;;;;;11.30;8.52;;;;;;;19.60;100.00;100200.03;4940782;29;20453;-72
2023/06/26 03:06:40;;;;;;;11.10;9.20;;;;;;;19.58;100.00;100198.47;4934783;28;20158;-71
2023/06/26 03:09:07;;;;;;;12.00;9.30;;;;;;;19.59;100.00;100192.09;4949390;28;20151;-72
2023/06/26 03:11:34;;;;;;;9.25;8.20;;;;;;;19.60;100.00;100201.88;4950837;28;20518;-72
2023/06/26 03:14:01;;;;;;;12.68;9.40;;;;;;;19.59;100.00;100186.72;4934329;28;20071;-72
2023/06/26 03:16:27;;;;;;;10.40;8.95;;;;;;;19.57;100.00;100177.94;4935500;28;20050;-72
2023/06/26 03:18:54;;;;;;;10.95;8.82;;;;;;;19.62;100.00;100183.78;4954835;28;20050;-73
2023/06/26 03:21:21;;;;;;;12.38;9.52;;;;;;;19.57;100.00;100175.25;4934721;28;20047;-72
2023/06/26 03:23:48;;;;;;;10.25;9.15;;;;;;;19.64;100.00;100186.34;4951304;28;20054;-72
2023/06/26 03:26:14;;;;;;;10.25;9.07;;;;;;;19.57;100.00;100177.94;4936808;28;20074;-72
2023/06/26 03:28:42;;;;;;;10.07;9.07;;;;;;;19.51;100.00;100175.81;4956225;28;20082;-72
2023/06/26 03:31:09;;;;;;;11.13;9.20;;;;;;;19.54;100.00;100187.13;4947890;28;20079;-71
2023/06/26 03:33:38;;;;;;;10.60;9.18;;;;;;;19.49;100.00;100186.69;4951444;28;20122;-71
2023/06/26 03:36:06;;;;;;;11.77;9.20;;;;;;;19.45;100.00;100190.59;4935520;28;20043;-71
2023/06/26 03:38:32;;;;;;;11.25;9.18;;;;;;;19.43;100.00;100184.50;4949566;28;20138;-71
2023/06/26 03:41:02;;;;;;;11.77;9.65;;;;;;;19.44;100.00;100190.72;4923963;28;20075;-71
2023/06/26 03:43:30;;;;;;;10.90;9.25;;;;;;;19.32;100.00;100171.16;4933646;28;20047;-71
2023/06/26 03:45:57;;;;;;;10.60;9.50;;;;;;;19.43;100.00;100183.66;4934189;28;21286;-71
2023/06/26 03:48:25;;;;;;;12.70;9.40;;;;;;;19.38;100.00;100181.34;4933522;28;20452;-72
2023/06/26 03:50:53;;;;;;;13.35;9.65;;;;;;;19.45;100.00;100193.28;4945092;28;20047;-71
2023/06/26 03:53:23;;;;;;;11.65;9.95;;;;;;;19.47;100.00;100187.78;4950301;28;20063;-71
2023/06/26 03:55:50;;;;;;;10.45;9.30;;;;;;;19.51;100.00;100190.09;4934561;28;20968;-71
2023/06/26 03:58:18;;;;;;;10.55;9.40;;;;;;;19.50;100.00;100188.41;4931160;28;20064;-72
2023/06/26 04:00:47;;;;;;;12.02;9.25;;;;;;;19.61;100.00;100198.19;4912187;28;20099;-72
2023/06/26 04:03:13;;;;;;;12.35;9.43;;;;;;;19.69;100.00;100195.66;4946225;28;20059;-70
2023/06/26 04:05:42;;;;;;;10.85;9.48;;;;;;;19.70;100.00;100194.69;4949954;28;20638;-71
2023/06/26 04:08:08;;;;;;;10.27;9.15;;;;;;;19.63;100.00;100190.84;4929594;29;20043;-72
2023/06/26 04:10:38;;;;;;;12.70;9.32;;;;;;;19.61;100.00;100187.44;4937054;28;20055;-71
2023/06/26 04:13:05;;;;;;;10.53;9.10;;;;;;;19.61;100.00;100196.34;4952389;28;20103;-73
2023/06/26 04:15:32;;;;;;;12.30;9.30;;;;;;;19.52;100.00;100193.59;4934206;28;20040;-72
2023/06/26 04:17:59;;;;;;;10.68;8.45;;;;;;;19.46;100.00;100188.75;4950625;28;20086;-72
2023/06/26 04:20:26;;;;;;;12.57;9.57;;;;;;;19.47;100.00;100196.69;4926311;28;20055;-73
2023/06/26 04:22:54;;;;;;;12.07;9.48;;;;;;;19.47;100.00;100206.56;4933007;28;20051;-71
2023/06/26 04:25:21;;;;;;;11.30;9.57;;;;;;;19.43;100.00;100192.56;4936140;28;20063;-71
2023/06/26 04:27:50;;;;;;;11.13;9.27;;;;;;;19.56;100.00;100198.59;4950749;28;20054;-73
2023/06/26 04:30:16;;;;;;;11.65;9.20;;;;;;;19.71;100.00;100196.38;4925268;28;20790;-71
2023/06/26 04:32:43;;;;;;;13.15;8.90;;;;;;;19.84;100.00;100202.38;4937665;28;20046;-71
2023/06/26 04:35:10;;;;;;;14.23;9.77;;;;;;;19.81;100.00;100189.25;4938761;28;20086;-72
2023/06/26 04:37:38;;;;;;;11.43;9.55;;;;;;;19.91;100.00;100200.84;4916164;28;20055;-71
2023/06/26 04:40:07;;;;;;;11.93;9.65;;;;;;;19.96;100.00;100198.63;4926255;28;20075;-71
2023/06/26 04:42:35;;;;;;;12.43;8.98;;;;;;;20.01;100.00;100189.28;4946375;28;20082;-72
2023/06/26 04:45:02;;;;;;;10.50;9.40;;;;;;;20.09;100.00;100197.53;4948007;28;20106;-71
2023/06/26 04:47:31;;;;;;;12.40;10.15;;;;;;;20.12;100.00;100194.56;4931523;28;20054;-72
2023/06/26 04:49:58;;;;;;;15.90;10.27;;;;;;;20.25;100.00;100204.06;4927991;29;20058;-72
2023/06/26 04:52:25;;;;;;;12.75;10.05;;;;;;;20.29;100.00;100194.75;4945108;28;20051;-73
2023/06/26 04:54:54;;;;;;;13.30;10.02;;;;;;;20.32;100.00;100202.50;4946373;28;20091;-72
2023/06/26 04:57:21;;;;;;;10.38;9.02;;;;;;;20.45;100.00;100199.63;4945610;28;20047;-71
2023/06/26 04:59:50;;;;;;;12.65;10.18;;;;;;;20.57;100.00;100203.00;4925718;29;20054;-71
2023/06/26 05:02:18;;;;;;;11.93;10.18;;;;;;;20.58;100.00;100202.88;4929905;29;20043;-71
2023/06/26 05:04:46;;;;;;;12.55;9.55;;;;;;;20.65;100.00;100201.31;4934171;28;20043;-72
2023/06/26 05:07:13;;;;;;;14.73;10.80;;;;;;;20.75;100.00;100195.09;4931883;28;20066;-72
2023/06/26 05:09:40;;;;;;;13.48;9.95;;;;;;;20.78;100.00;100189.44;4945593;28;20047;-71
2023/06/26 05:12:07;;;;;;;12.82;9.93;;;;;;;20.89;100.00;100202.75;4944357;28;20552;-72
2023/06/26 05:14:34;;;;;;;11.50;9.43;;;;;;;20.96;100.00;100193.09;4948263;28;20067;-72
2023/06/26 05:17:01;;;;;;;13.18;9.52;;;;;;;21.03;100.00;100194.22;4949677;28;20126;-72
2023/06/26 05:19:28;;;;;;;11.25;8.93;;;;;;;21.13;96.04;100205.81;4948924;28;20481;-72
2023/06/26 05:21:56;;;;;;;10.90;8.85;;;;;;;21.16;88.60;100191.22;4949286;28;20070;-73
2023/06/26 05:24:23;;;;;;;10.05;8.82;;;;;;;21.30;87.87;100196.19;4950195;28;20073;-72
2023/06/26 05:26:53;;;;;;;11.45;8.63;;;;;;;21.39;87.56;100189.94;4934331;28;20055;-72
2023/06/26 05:29:23;;;;;;;11.68;7.88;;;;;;;21.50;86.62;100199.69;4949154;28;20055;-72
2023/06/26 05:31:51;;;;;;;11.05;8.05;;;;;;;21.59;85.29;100190.69;4929181;28;20759;-74
2023/06/26 05:34:21;;;;;;;10.45;8.48;;;;;;;21.64;81.99;100191.13;4936369;28;20105;-75
2023/06/26 05:36:51;;;;;;;11.98;9.05;;;;;;;21.64;81.38;100193.81;4932405;28;20090;-72
2023/06/26 05:39:18;;;;;;;10.20;8.85;;;;;;;21.69;81.17;100202.31;4949878;28;20062;-73
2023/06/26 05:41:51;;;;;;;11.15;9.25;;;;;;;21.77;81.69;100204.25;4945970;28;20492;-72
2023/06/26 05:44:17;;;;;;;10.98;9.38;;;;;;;21.79;82.12;100196.88;4950585;28;20043;-73
2023/06/26 05:46:46;;;;;;;12.13;9.57;;;;;;;21.84;81.61;100206.22;4946305;28;20082;-72
2023/06/26 05:49:13;;;;;;;17.08;9.90;;;;;;;21.89;82.48;100206.59;4947876;28;20066;-73
2023/06/26 05:51:41;;;;;;;15.23;10.50;;;;;;;21.91;82.97;100201.91;4933694;28;20168;-73
2023/06/26 05:54:13;;;;;;;13.15;10.30;;;;;;;22.02;83.00;100206.31;4932064;29;20043;-73
2023/06/26 05:56:40;;;;;;;10.43;9.32;;;;;;;22.18;84.28;100197.56;4928444;28;20129;-73
2023/06/26 05:59:11;;;;;;;12.07;10.48;;;;;;;22.34;83.09;100203.16;4946281;28;20122;-72
2023/06/26 06:01:38;;;;;;;13.93;11.45;;;;;;;22.33;81.80;100201.44;4941955;28;20131;-73
2023/06/26 06:04:04;;;;;;;12.32;10.40;;;;;;;22.35;83.72;100205.66;4939962;28;20129;-71
2023/06/26 06:06:36;;;;;;;13.88;11.32;;;;;;;22.48;82.41;100196.38;4958126;28;20055;-73
2023/06/26 06:09:04;;;;;;;12.10;10.80;;;;;;;22.67;81.89;100201.59;4959618;28;20052;-74
2023/06/26 06:11:31;;;;;;;15.23;12.02;;;;;;;22.78;80.37;100193.31;4936709;28;20078;-72
2023/06/26 06:13:59;;;;;;;17.27;12.93;;;;;;;22.84;78.53;100198.09;4953567;28;20082;-72
2023/06/26 06:16:28;;;;;;;16.00;12.73;;;;;;;22.86;78.77;100189.81;4934526;29;20049;-72
2023/06/26 06:18:55;;;;;;;14.18;12.20;;;;;;;22.98;77.67;100197.53;4930461;28;20082;-72
2023/06/26 06:21:23;;;;;;;17.88;12.40;;;;;;;23.22;76.73;100193.34;4940521;28;20105;-72
2023/06/26 06:23:52;;;;;;;13.93;10.32;;;;;;;23.79;73.87;100197.25;4935905;28;20047;-72
2023/06/26 06:26:18;;;;;;;13.98;10.52;;;;;;;24.35;69.38;100187.69;4945507;28;20039;-72
2023/06/26 06:28:47;;;;;;;14.52;10.75;;;;;;;24.86;66.01;100197.41;4946308;28;20055;-72
2023/06/26 06:31:14;;;;;;;12.65;10.18;;;;;;;25.08;62.37;100194.03;4924522;28;20103;-72
2023/06/26 06:33:42;;;;;;;14.43;9.90;;;;;;;25.07;62.91;100183.38;4949528;28;20055;-72
2023/06/26 06:36:10;;;;;;;12.73;8.82;;;;;;;25.15;59.56;100184.22;4934426;28;20047;-72
2023/06/26 06:38:38;;;;;;;10.90;9.02;;;;;;;25.58;59.55;100183.97;4951976;28;20058;-72
2023/06/26 06:41:04;;;;;;;9.82;8.80;;;;;;;26.04;57.47;100185.88;4919555;29;20190;-73
2023/06/26 06:43:31;;;;;;;10.38;8.80;;;;;;;25.90;55.45;100189.31;4950374;28;20058;-73
2023/06/26 06:45:59;;;;;;;11.85;8.13;;;;;;;25.81;57.43;100179.53;4950055;28;20066;-72
2023/06/26 06:48:25;;;;;;;11.05;8.07;;;;;;;25.99;54.38;100177.41;4933364;28;20644;-73
2023/06/26 06:50:52;;;;;;;10.50;8.00;;;;;;;25.90;53.22;100192.03;4950365;28;20907;-73
2023/06/26 06:53:20;;;;;;;10.98;7.95;;;;;;;26.14;54.21;100183.78;4931743;28;20044;-72
2023/06/26 06:55:47;;;;;;;8.50;7.32;;;;;;;26.16;53.12;100189.03;4945700;28;20402;-72
2023/06/26 06:58:13;;;;;;;11.13;8.25;;;;;;;26.17;54.62;100188.84;4947409;28;20078;-72
2023/06/26 07:00:40;;;;;;;11.20;7.72;;;;;;;26.49;51.59;100198.72;4945759;28;20239;-71
2023/06/26 07:03:07;;;;;;;9.88;7.72;;;;;;;26.32;51.98;100199.84;4926963;28;20090;-71
2023/06/26 07:05:34;;;;;;;10.63;7.80;;;;;;;26.38;51.96;100198.28;4946510;29;20133;-71
2023/06/26 07:08:03;;;;;;;10.25;7.88;;;;;;;26.34;52.46;100194.22;4963990;28;20488;-70
2023/06/26 07:10:30;;;;;;;9.95;7.50;;;;;;;26.29;53.60;100191.22;4961732;28;20130;-72
2023/06/26 07:13:00;;;;;;;9.75;7.63;;;;;;;26.75;53.88;100190.22;4933905;28;20137;-74
2023/06/26 07:15:27;;;;;;;8.50;7.55;;;;;;;26.78;50.58;100173.56;4948534;28;20051;-71
2023/06/26 07:17:54;;;;;;;8.63;7.20;;;;;;;27.18;51.55;100171.56;4946384;28;20043;-72
2023/06/26 07:20:20;;;;;;;10.98;8.07;;;;;;;27.29;48.44;100183.84;4948047;28;20065;-74
2023/06/26 07:22:48;;;;;;;11.27;8.07;;;;;;;26.95;48.84;100184.31;4952092;28;20115;-72
2023/06/26 07:25:15;;;;;;;9.27;7.82;;;;;;;26.96;49.25;100188.72;4930670;28;20054;-72
2023/06/26 07:27:44;;;;;;;12.15;8.05;;;;;;;27.16;50.07;100174.44;4947349;28;20047;-73
2023/06/26 07:30:10;;;;;;;9.55;7.50;;;;;;;26.87;47.86;100196.09;4922357;28;20058;-72
2023/06/26 07:32:43;;;;;;;9.00;7.45;;;;;;;26.52;50.36;100186.66;4949273;28;20044;-72
2023/06/26 07:35:11;;;;;;;10.38;7.63;;;;;;;26.72;49.70;100189.75;4936944;28;20080;-71
2023/06/26 07:37:40;;;;;;;10.33;7.77;;;;;;;26.97;49.82;100195.84;4925827;29;20419;-72
2023/06/26 07:40:09;;;;;;;7.85;7.05;;;;;;;27.64;46.94;100187.75;4928434;29;20464;-72
2023/06/26 07:42:36;;;;;;;9.68;7.47;;;;;;;28.15;45.75;100188.66;4917801;29;20060;-72
2023/06/26 07:45:09;;;;;;;9.75;7.30;;;;;;;27.95;45.99;100196.56;4915369;29;20119;-72
2023/06/26 07:47:37;;;;;;;8.80;6.90;;;;;;;28.11;47.04;100193.66;4911473;29;20043;-73
2023/06/26 07:50:04;;;;;;;9.38;7.22;;;;;;;28.50;45.07;100167.91;4929678;29;20063;-73
2023/06/26 07:52:31;;;;;;;8.55;7.45;;;;;;;28.78;44.38;100192.53;4933323;29;20043;-74
2023/06/26 07:54:58;;;;;;;9.63;7.65;;;;;;;29.15;42.86;100183.25;4909748;29;20051;-73
2023/06/26 07:57:24;;;;;;;7.55;6.85;;;;;;;29.48;42.62;100178.06;4913542;29;20055;-72
2023/06/26 07:59:51;;;;;;;8.88;6.97;;;;;;;29.76;42.57;100180.75;4923319;29;20688;-73
2023/06/26 08:02:19;;;;;;;7.75;6.85;;;;;;;29.76;40.76;100180.75;4916225;29;20047;-72
2023/06/26 08:04:46;;;;;;;8.30;6.10;;;;;;;29.92;40.66;100170.34;4932372;29;20055;-73
2023/06/26 08:07:16;;;;;;;7.70;6.80;;;;;;;29.97;40.30;100169.78;4932046;29;20048;-72
2023/06/26 08:09:46;;;;;;;8.90;6.78;;;;;;;29.79;41.76;100178.47;4916807;29;20048;-73
2023/06/26 08:12:14;;;;;;;8.07;6.90;;;;;;;30.09;39.85;100187.25;4923390;29;20474;-72
2023/06/26 08:14:41;;;;;;;8.02;6.55;;;;;;;30.34;38.62;100179.38;4922027;29;20117;-72
2023/06/26 08:17:09;;;;;;;7.93;6.97;;;;;;;30.46;38.25;100166.81;4903806;29;20331;-73
2023/06/26 08:19:37;;;;;;;8.68;6.72;;;;;;;30.04;37.54;100173.38;4921129;29;20071;-74
2023/06/26 08:22:05;;;;;;;9.45;7.32;;;;;;;29.18;39.99;100182.84;4936852;29;20621;-73
2023/06/26 08:24:33;;;;;;;7.97;7.00;;;;;;;28.56;41.03;100186.22;4945548;29;20068;-72
2023/06/26 08:26:59;;;;;;;8.10;7.20;;;;;;;28.15;42.42;100191.38;4943533;29;20063;-72
2023/06/26 08:29:28;;;;;;;10.30;7.75;;;;;;;28.35;42.67;100183.47;4946974;29;20052;-74
2023/06/26 08:31:55;;;;;;;9.48;6.93;;;;;;;28.77;42.32;100180.78;4921877;29;20079;-74
2023/06/26 08:34:26;;;;;;;8.60;6.60;;;;;;;29.25;40.54;100153.75;4925668;29;20134;-73
2023/06/26 08:36:52;;;;;;;7.18;6.43;;;;;;;29.73;39.26;100187.47;4920943;29;20151;-73
2023/06/26 08:39:22;;;;;;;;;;;;;;;29.31;39.81;100197.44;4962123;28;20057;-71
2023/06/26 08:41:49;;;;;;;7.85;6.90;;;;;;;28.58;41.20;100186.88;4962741;28;19970;-72
2023/06/26 08:44:15;;;;;;;9.82;7.75;;;;;;;28.23;42.49;100200.31;4967407;28;20035;-72
2023/06/26 08:46:43;;;;;;;12.05;7.13;;;;;;;28.19;43.15;100193.56;4938301;29;20074;-72
2023/06/26 08:49:49;;;;;;;7.80;6.55;;;;;;;28.44;43.67;100196.78;4967417;28;20098;-73
2023/06/26 08:52:25;;;;;;;11.52;6.70;;;;;;;29.09;42.08;100192.22;4957949;28;20054;-72
2023/06/26 08:54:58;;;;;;;9.18;6.30;;;;;;;29.52;41.92;100196.56;4941090;29;20050;-72
2023/06/26 08:57:26;;;;;;;9.18;6.40;;;;;;;29.52;41.13;100195.72;4951371;28;20047;-73
2023/06/26 08:59:55;;;;;;;7.47;6.55;;;;;;;29.56;40.74;100192.41;4956713;28;20043;-74
2023/06/26 09:02:22;;;;;;;9.07;7.07;;;;;;;29.81;40.94;100194.66;4940850;29;20102;-73
2023/06/26 09:04:50;;;;;;;10.07;7.53;;;;;;;29.60;39.82;100193.69;4954690;28;21739;-73
2023/06/26 09:07:16;;;;;;;9.27;6.40;;;;;;;29.20;40.71;100173.44;4954683;28;20090;-73
2023/06/26 09:09:46;;;;;;;7.38;6.38;;;;;;;29.26;40.92;100191.75;4951782;28;20046;-72
2023/06/26 09:12:13;;;;;;;10.40;6.57;;;;;;;29.55;41.24;100179.81;4955584;28;20130;-73
2023/06/26 09:14:40;;;;;;;9.35;6.45;;;;;;;29.63;40.63;100181.53;4952046;28;20103;-73
2023/06/26 09:17:08;;;;;;;8.55;6.10;;;;;;;29.92;41.07;100200.38;4953342;28;20044;-73
2023/06/26 09:19:38;;;;;;;7.43;6.57;;;;;;;29.90;40.94;100199.75;4951263;28;20054;-73
2023/06/26 09:22:13;;;;;;;9.77;6.65;;;;;;;29.87;40.63;100183.78;4962847;28;20070;-73
2023/06/26 09:24:42;;;;;;;6.80;6.18;;;;;;;29.75;41.64;100192.75;4932797;28;20081;-73
2023/06/26 09:27:09;;;;;;;8.27;6.15;;;;;;;29.72;41.42;100195.88;4939778;28;20066;-72
2023/06/26 09:29:36;;;;;;;7.00;6.25;;;;;;;29.82;40.63;100193.59;4952787;28;20044;-72
2023/06/26 09:32:03;;;;;;;7.30;5.80;;;;;;;29.51;41.06;100205.81;4952869;28;20047;-71
2023/06/26 09:34:31;;;;;;;6.57;5.97;;;;;;;29.15;42.13;100196.88;4935121;29;20111;-73
2023/06/26 09:37:03;;;;;;;8.07;5.97;;;;;;;28.82;41.66;100202.03;4911195;28;20054;-72
2023/06/26 09:39:31;;;;;;;7.07;5.78;;;;;;;28.76;42.97;100209.09;4935500;28;20186;-75
2023/06/26 09:42:01;;;;;;;10.27;6.25;;;;;;;28.90;42.81;100208.22;4937582;29;20047;-73
2023/06/26 09:44:33;;;;;;;8.48;5.97;;;;;;;29.08;42.35;100205.03;4937985;28;20561;-72
2023/06/26 09:47:05;;;;;;;8.02;6.45;;;;;;;29.26;41.89;100216.28;4953030;28;20130;-74
2023/06/26 09:49:32;;;;;;;8.15;6.60;;;;;;;29.13;40.45;100196.22;4944834;28;20051;-73
2023/06/26 09:52:02;;;;;;;6.97;6.18;;;;;;;29.10;41.10;100208.41;4953693;28;20051;-73
2023/06/26 09:54:31;;;;;;;;;;;;;;;28.78;41.79;100187.94;4951717;28;20035;-73
2023/06/26 09:57:12;;;;;;;7.38;6.13;;;;;;;29.01;41.74;100214.16;4949278;28;20017;-74
2023/06/26 09:59:40;;;;;;;5.82;5.32;;;;;;;29.13;42.05;100207.13;4926029;28;20075;-73
2023/06/26 10:02:07;;;;;;;9.75;6.13;;;;;;;29.06;42.36;100206.25;4941337;28;20048;-72
2023/06/26 10:04:35;;;;;;;7.60;6.10;;;;;;;29.30;42.05;100208.53;4926514;28;20047;-72
2023/06/26 10:07:13;;;;;;;7.78;5.75;;;;;;;29.46;43.17;100212.88;4938298;29;20075;-72
2023/06/26 10:09:42;;;;;;;7.32;5.90;;;;;;;29.41;42.44;100216.22;4942433;28;21397;-73
2023/06/26 10:12:28;;;;;;;6.35;5.75;;;;;;;29.30;43.35;100209.38;4947806;28;20078;-73
2023/06/26 10:14:58;;;;;;;8.82;6.07;;;;;;;29.09;42.69;100223.06;4955843;28;20050;-73
2023/06/26 10:17:32;;;;;;;6.72;5.85;;;;;;;28.84;43.46;100214.44;4937369;29;20051;-73
2023/06/26 10:20:04;;;;;;;6.32;5.72;;;;;;;28.84;43.12;100221.75;4955864;28;20043;-73
2023/06/26 10:22:43;;;;;;;8.00;5.80;;;;;;;29.22;42.95;100222.34;4941692;29;20078;-72
2023/06/26 10:25:22;;;;;;;7.03;6.18;;;;;;;29.74;41.77;100226.53;4928426;29;20148;-73
2023/06/26 10:27:54;;;;;;;7.70;5.85;;;;;;;29.89;41.10;100211.72;4958620;28;20047;-73
2023/06/26 10:30:26;;;;;;;7.15;5.57;;;;;;;29.85;41.09;100210.44;4956774;28;20106;-73
2023/06/26 10:32:54;;;;;;;9.57;5.50;;;;;;;29.93;41.32;100212.97;4939332;29;20528;-73
2023/06/26 10:35:24;;;;;;;9.38;6.00;;;;;;;30.02;40.90;100210.97;4954675;28;20047;-73
2023/06/26 10:37:51;;;;;;;6.28;5.25;;;;;;;30.00;40.83;100221.25;4938739;29;20054;-72
2023/06/26 10:40:25;;;;;;;8.57;5.72;;;;;;;30.10;39.93;100207.22;4919459;29;20079;-72
2023/06/26 10:43:07;;;;;;;6.00;5.40;;;;;;;30.26;39.29;100207.72;4916491;29;20048;-72
2023/06/26 10:45:35;;;;;;;9.27;5.75;;;;;;;30.19;38.50;100209.59;4932877;29;20483;-73
2023/06/26 10:48:04;;;;;;;7.47;5.35;;;;;;;29.90;39.97;100209.84;4924327;29;20051;-73
2023/06/26 10:50:39;;;;;;;5.82;5.20;;;;;;;29.67;39.48;100193.72;4941216;29;20099;-71
2023/06/26 10:53:22;;;;;;;8.00;5.32;;;;;;;29.78;39.84;100230.53;4946805;29;20051;-73
2023/06/26 10:55:51;;;;;;;8.40;5.30;;;;;;;29.62;39.80;100220.78;4926227;29;20522;-72
2023/06/26 10:58:43;;;;;;;7.78;5.32;;;;;;;29.27;39.71;100237.06;4936987;29;20051;-74
2023/06/26 11:01:10;;;;;;;8.48;6.00;;;;;;;29.29;39.98;100229.50;4930429;29;20143;-73
2023/06/26 11:03:38;;;;;;;7.97;5.32;;;;;;;29.55;40.21;100234.38;4939640;29;20110;-73
2023/06/26 11:06:17;;;;;;;5.63;4.95;;;;;;;29.80;39.80;100231.19;4922543;29;20059;-75
2023/06/26 11:08:48;;;;;;;8.68;5.40;;;;;;;29.80;39.55;100225.72;4940332;29;20055;-72
2023/06/26 11:11:16;;;;;;;8.60;5.65;;;;;;;29.70;39.27;100219.78;4925620;29;20128;-74
2023/06/26 11:13:47;;;;;;;7.95;5.65;;;;;;;29.78;40.23;100225.91;4912446;29;20083;-75
2023/06/26 11:16:19;;;;;;;5.93;5.32;;;;;;;29.82;39.91;100224.47;4922486;29;20047;-73
2023/06/26 11:18:47;;;;;;;5.82;5.32;;;;;;;30.06;40.38;100225.91;4938295;29;20048;-74
2023/06/26 11:21:15;;;;;;;7.10;5.70;;;;;;;30.15;39.98;100230.16;4932236;29;20051;-73
2023/06/26 11:23:45;;;;;;;9.70;5.60;;;;;;;29.81;40.33;100230.13;4931668;29;20099;-73
2023/06/26 11:26:21;;;;;;;7.18;5.97;;;;;;;29.79;40.07;100227.59;4915891;29;20467;-74